createdAt,value
2023-01-13T00:01:52.425Z,11.43
2023-01-13T00:04:22.399Z,11.44
2023-01-13T00:06:52.535Z,11.34
2023-01-13T00:09:22.709Z,11.35
2023-01-13T00:11:52.769Z,11.47
2023-01-13T00:14:26.420Z,11.69
2023-01-13T00:16:56.406Z,11.83
2023-01-13T00:19:26.436Z,11.50
2023-01-13T00:21:56.459Z,11.63
2023-01-13T00:24:26.533Z,11.66
2023-01-13T00:26:56.619Z,11.58
2023-01-13T00:29:29.403Z,11.74
2023-01-13T00:31:59.350Z,11.68
2023-01-13T00:34:29.415Z,11.75
2023-01-13T00:36:59.424Z,11.72
2023-01-13T00:39:29.560Z,11.79
2023-01-13T00:42:11.944Z,11.51
2023-01-13T00:44:44.667Z,11.71
2023-01-13T00:47:14.637Z,11.71
2023-01-13T00:49:44.962Z,11.64
2023-01-13T00:52:15.424Z,11.63
2023-01-13T00:55:01.063Z,11.58
2023-01-13T00:57:31.117Z,11.65
2023-01-13T01:00:04.903Z,11.68
2023-01-13T01:02:34.906Z,11.77
2023-01-13T01:05:05.008Z,11.59
2023-01-13T01:07:35.047Z,11.74
2023-01-13T01:10:05.231Z,11.66
2023-01-13T01:12:35.286Z,11.78
2023-01-13T01:15:10.219Z,11.79
2023-01-13T01:17:40.854Z,11.80
2023-01-13T01:20:12.777Z,11.67
2023-01-13T01:22:42.897Z,11.85
2023-01-13T01:25:13.164Z,11.77
2023-01-13T01:28:06.517Z,11.47
2023-01-13T01:30:41.949Z,11.44
2023-01-13T01:33:12.027Z,11.52
2023-01-13T01:35:42.983Z,11.59
2023-01-13T01:38:13.101Z,11.53
2023-01-13T01:40:43.282Z,11.81
2023-01-13T01:43:30.394Z,11.95
2023-01-13T01:46:03.211Z,11.95
2023-01-13T01:48:37.907Z,11.92
2023-01-13T01:51:12.540Z,12.01
2023-01-13T01:53:44.370Z,11.97
2023-01-13T01:56:14.478Z,12.04
2023-01-13T01:58:49.956Z,11.93
2023-01-13T02:01:23.027Z,11.99
2023-01-13T02:03:59.228Z,11.85
2023-01-13T02:06:30.906Z,12.07
2023-01-13T02:09:02.767Z,12.06
2023-01-13T02:11:47.565Z,12.14
2023-01-13T02:14:17.787Z,12.29
2023-01-13T02:17:02.483Z,12.08
2023-01-13T02:19:57.775Z,12.11
2023-01-13T02:22:46.104Z,11.98
2023-01-13T02:25:37.244Z,11.85
2023-01-13T02:28:24.893Z,12.17
2023-01-13T02:31:15.160Z,11.96
2023-01-13T02:33:58.036Z,11.96
2023-01-13T02:36:35.064Z,11.83
2023-01-13T02:39:12.372Z,12.19
2023-01-13T02:42:02.216Z,12.33
2023-01-13T02:44:40.115Z,12.35
2023-01-13T02:47:19.018Z,12.08
2023-01-13T02:49:52.772Z,11.98
2023-01-13T02:52:27.868Z,12.11
2023-01-13T02:55:02.305Z,12.07
2023-01-13T02:57:35.749Z,12.02
2023-01-13T03:00:08.933Z,12.13
2023-01-13T03:02:41.673Z,12.09
2023-01-13T03:05:16.994Z,12.20
2023-01-13T03:08:07.635Z,12.20
2023-01-13T03:10:47.569Z,12.23
2023-01-13T03:13:43.114Z,12.20
2023-01-13T03:16:23.826Z,12.02
2023-01-13T03:19:08.810Z,12.05
2023-01-13T03:21:44.104Z,12.12
2023-01-13T03:24:20.180Z,11.98
2023-01-13T03:26:53.921Z,12.15
2023-01-13T03:29:31.599Z,12.25
2023-01-13T03:32:05.998Z,12.20
2023-01-13T03:34:45.991Z,12.23
2023-01-13T03:37:19.837Z,12.25
2023-01-13T03:39:55.792Z,12.19
2023-01-13T03:42:29.307Z,12.09
2023-01-13T03:45:03.267Z,12.18
2023-01-13T03:47:41.241Z,11.93
2023-01-13T03:50:18.414Z,11.96
2023-01-13T03:52:52.248Z,12.04
2023-01-13T03:55:28.460Z,11.98
2023-01-13T03:58:04.266Z,12.02
2023-01-13T04:00:39.281Z,12.05
2023-01-13T04:03:13.450Z,12.28
2023-01-13T04:05:49.561Z,12.00
2023-01-13T04:08:23.748Z,12.08
2023-01-13T04:11:08.261Z,12.08
2023-01-13T04:13:54.927Z,11.97
2023-01-13T04:16:24.993Z,12.17
2023-01-13T04:18:54.955Z,12.28
2023-01-13T04:21:27.802Z,12.18
2023-01-13T04:23:57.815Z,12.19
2023-01-13T04:26:27.735Z,11.96
2023-01-13T04:28:57.667Z,11.87
2023-01-13T04:31:27.795Z,12.10
2023-01-13T04:33:57.850Z,12.13
2023-01-13T04:36:30.532Z,12.14
2023-01-13T04:39:00.451Z,12.04
2023-01-13T04:41:50.492Z,12.00
2023-01-13T04:44:20.428Z,11.80
2023-01-13T04:46:50.352Z,11.92
2023-01-13T04:49:20.311Z,11.86
2023-01-13T04:51:52.882Z,11.88
2023-01-13T04:54:22.865Z,11.82
2023-01-13T04:56:52.802Z,11.88
2023-01-13T04:59:22.735Z,11.79
2023-01-13T05:01:52.850Z,11.78
2023-01-13T05:04:22.967Z,11.73
2023-01-13T05:06:55.602Z,11.74
2023-01-13T05:09:25.557Z,11.81
2023-01-13T05:12:07.917Z,11.61
2023-01-13T05:14:50.281Z,11.72
2023-01-13T05:17:23.237Z,11.78
2023-01-13T05:19:56.131Z,11.98
2023-01-13T05:22:41.122Z,12.02
2023-01-13T05:25:24.490Z,11.94
2023-01-13T05:27:56.521Z,11.94
2023-01-13T05:30:28.281Z,12.05
2023-01-13T05:32:58.371Z,12.05
2023-01-13T05:35:29.192Z,12.04
2023-01-13T05:38:01.754Z,12.14
2023-01-13T05:40:44.242Z,12.23
2023-01-13T05:43:25.212Z,12.29
2023-01-13T05:45:59.235Z,12.21
2023-01-13T05:48:32.898Z,12.23
2023-01-13T05:51:03.526Z,12.45
2023-01-13T05:53:36.628Z,12.30
2023-01-13T05:56:08.201Z,12.39
2023-01-13T05:58:38.331Z,12.53
2023-01-13T06:01:10.300Z,12.48
2023-01-13T06:03:41.123Z,12.42
2023-01-13T06:06:11.430Z,12.56
2023-01-13T06:08:43.992Z,12.55
2023-01-13T06:11:13.981Z,12.52
2023-01-13T06:13:44.106Z,12.50
2023-01-13T06:16:14.157Z,12.61
2023-01-13T06:18:44.164Z,12.74
2023-01-13T06:21:14.095Z,12.82
2023-01-13T06:23:46.736Z,12.91
2023-01-13T06:26:20.413Z,12.97
2023-01-13T06:28:50.535Z,13.04
2023-01-13T06:31:21.518Z,13.06
2023-01-13T06:33:56.407Z,13.10
2023-01-13T06:36:33.821Z,13.11
2023-01-13T06:39:07.304Z,13.12
2023-01-13T06:41:49.904Z,13.09
2023-01-13T06:44:20.594Z,13.05
2023-01-13T06:46:50.823Z,13.05
2023-01-13T06:49:21.766Z,12.95
2023-01-13T06:51:52.369Z,12.68
2023-01-13T06:54:27.588Z,12.67
2023-01-13T06:57:17.952Z,12.66
2023-01-13T06:59:47.889Z,12.72
2023-01-13T07:02:17.946Z,12.69
2023-01-13T07:04:48.098Z,12.67
2023-01-13T07:07:18.075Z,12.62
2023-01-13T07:09:50.667Z,12.45
2023-01-13T07:12:20.663Z,12.34
2023-01-13T07:15:03.070Z,12.51
2023-01-13T07:17:33.502Z,12.42
2023-01-13T07:20:03.515Z,12.43
2023-01-13T07:22:33.614Z,12.36
2023-01-13T07:25:06.626Z,12.41
2023-01-13T07:27:36.614Z,12.41
2023-01-13T07:30:06.897Z,12.59
2023-01-13T07:32:36.969Z,12.72
2023-01-13T07:35:08.010Z,12.78
2023-01-13T07:37:39.700Z,12.66
2023-01-13T07:40:13.733Z,12.50
2023-01-13T07:42:56.101Z,12.41
2023-01-13T07:45:26.333Z,12.35
2023-01-13T07:47:56.575Z,12.31
2023-01-13T07:50:26.603Z,12.38
2023-01-13T07:53:00.168Z,12.32
2023-01-13T07:55:32.958Z,12.50
2023-01-13T07:58:02.896Z,12.58
2023-01-13T08:00:35.723Z,12.50
2023-01-13T08:03:05.849Z,12.38
2023-01-13T08:05:37.739Z,12.38
2023-01-13T08:08:08.203Z,12.32
2023-01-13T08:10:40.844Z,12.42
2023-01-13T08:13:21.176Z,12.37
2023-01-13T08:15:52.975Z,12.55
2023-01-13T08:18:24.812Z,12.35
2023-01-13T08:20:55.915Z,12.32
2023-01-13T08:23:26.430Z,12.20
2023-01-13T08:26:02.914Z,12.29
2023-01-13T08:28:33.902Z,12.32
2023-01-13T08:31:04.711Z,12.41
2023-01-13T08:33:34.954Z,12.31
2023-01-13T08:36:06.919Z,12.19
2023-01-13T08:38:38.153Z,12.13
2023-01-13T08:41:21.675Z,12.20
2023-01-13T08:43:51.647Z,12.09
2023-01-13T08:46:21.856Z,12.17
2023-01-13T08:48:51.831Z,12.38
2023-01-13T08:51:21.783Z,12.33
2023-01-13T08:53:51.803Z,12.28
2023-01-13T08:56:24.358Z,12.20
2023-01-13T08:58:55.575Z,12.20
2023-01-13T09:01:26.734Z,12.24
2023-01-13T09:03:57.491Z,12.10
2023-01-13T09:06:27.604Z,11.86
2023-01-13T09:08:57.573Z,12.01
2023-01-13T09:11:46.542Z,11.91
2023-01-13T09:14:20.461Z,11.84
2023-01-13T09:16:50.625Z,11.92
2023-01-13T09:19:20.606Z,11.88
2023-01-13T09:21:52.562Z,11.85
2023-01-13T09:24:22.517Z,12.12
2023-01-13T09:26:55.353Z,12.35
2023-01-13T09:29:25.589Z,12.00
2023-01-13T09:31:57.900Z,11.64
2023-01-13T09:34:40.459Z,11.86
2023-01-13T09:37:11.060Z,11.93
2023-01-13T09:39:41.058Z,12.24
2023-01-13T09:42:35.580Z,12.24
2023-01-13T09:45:09.592Z,12.11
2023-01-13T09:47:46.913Z,12.44
2023-01-13T09:50:34.076Z,12.68
2023-01-13T09:53:04.526Z,12.82
2023-01-13T09:55:37.340Z,12.77
2023-01-13T09:58:16.864Z,12.56
2023-01-13T10:00:53.882Z,12.24
2023-01-13T10:03:27.884Z,12.20
2023-01-13T10:06:04.789Z,12.36
2023-01-13T10:08:37.402Z,12.49
2023-01-13T10:11:28.029Z,12.62
2023-01-13T10:14:04.173Z,12.58
2023-01-13T10:16:42.553Z,12.32
2023-01-13T10:19:22.671Z,12.12
2023-01-13T10:22:22.843Z,12.03
2023-01-13T10:25:09.540Z,12.01
2023-01-13T10:27:41.869Z,12.21
2023-01-13T10:30:22.722Z,12.51
2023-01-13T10:32:57.552Z,12.82
2023-01-13T10:35:56.628Z,12.77
2023-01-13T10:38:33.878Z,12.57
2023-01-13T10:41:05.304Z,12.28
2023-01-13T10:43:35.549Z,12.23
2023-01-13T10:46:13.586Z,12.22
2023-01-13T10:48:45.311Z,12.23
2023-01-13T10:51:30.504Z,12.14
2023-01-13T10:54:03.726Z,12.15
2023-01-13T10:56:35.912Z,12.12
2023-01-13T10:59:17.301Z,12.17
2023-01-13T11:02:02.598Z,12.07
2023-01-13T11:04:39.007Z,12.37
2023-01-13T11:07:24.388Z,12.35
2023-01-13T11:10:13.428Z,12.39
2023-01-13T11:12:51.639Z,12.55
2023-01-13T11:15:25.460Z,12.71
2023-01-13T11:18:12.779Z,12.61
2023-01-13T11:20:44.988Z,12.51
2023-01-13T11:23:22.013Z,12.41
2023-01-13T11:25:57.828Z,12.46
2023-01-13T11:28:43.260Z,12.44
2023-01-13T11:31:21.514Z,12.74
2023-01-13T11:34:00.184Z,12.81
2023-01-13T11:36:36.046Z,13.40
2023-01-13T11:39:14.778Z,14.04
2023-01-13T11:41:47.474Z,14.44
2023-01-13T11:44:24.653Z,14.96
2023-01-13T11:46:56.425Z,15.48
2023-01-13T11:49:33.583Z,15.89
2023-01-13T11:52:10.761Z,15.99
2023-01-13T11:55:06.973Z,16.62
2023-01-13T11:57:56.566Z,16.39
2023-01-13T12:00:35.800Z,16.30
2023-01-13T12:03:25.194Z,15.87
2023-01-13T12:06:19.748Z,15.67
2023-01-13T12:09:11.992Z,15.41
2023-01-13T12:12:12.631Z,16.16
2023-01-13T12:14:56.738Z,15.81
2023-01-13T12:17:37.404Z,15.59
2023-01-13T12:20:23.827Z,15.78
2023-01-13T12:23:01.249Z,15.73
2023-01-13T12:25:37.497Z,15.27
2023-01-13T12:28:14.604Z,15.24
2023-01-13T12:30:51.774Z,15.74
2023-01-13T12:33:31.987Z,16.02
2023-01-13T12:36:09.144Z,16.06
2023-01-13T12:38:50.773Z,16.33
2023-01-13T12:41:36.919Z,16.24
2023-01-13T12:44:20.481Z,16.09
2023-01-13T12:46:58.818Z,15.78
2023-01-13T12:49:33.928Z,15.50
2023-01-13T12:52:22.242Z,15.40
2023-01-13T12:55:12.756Z,15.24
2023-01-13T12:57:42.812Z,15.36
2023-01-13T13:00:20.579Z,15.32
2023-01-13T13:03:31.022Z,15.67
2023-01-13T13:06:08.945Z,16.08
2023-01-13T13:08:53.528Z,16.08
2023-01-13T13:11:57.627Z,15.92
2023-01-13T13:15:06.836Z,15.72
2023-01-13T13:17:44.659Z,15.59
2023-01-13T13:20:54.086Z,15.65
2023-01-13T13:23:48.542Z,15.71
2023-01-13T13:26:25.091Z,15.33
2023-01-13T13:29:14.184Z,15.51
2023-01-13T13:32:16.210Z,15.35
2023-01-13T13:34:54.650Z,15.22
2023-01-13T13:38:01.489Z,15.12
2023-01-13T14:47:03.543Z,11.61
2023-01-13T14:49:39.533Z,11.89
2023-01-13T14:52:16.367Z,12.33
2023-01-13T14:54:52.108Z,12.62
2023-01-13T14:57:36.107Z,12.75
2023-01-13T15:00:22.905Z,12.80
2023-01-13T15:03:20.436Z,12.75
2023-01-13T15:06:02.127Z,12.72
2023-01-13T15:08:41.281Z,12.61
2023-01-13T15:11:25.333Z,12.58
2023-01-13T15:14:03.914Z,12.48
2023-01-13T15:16:37.850Z,12.34
2023-01-13T15:19:16.301Z,12.30
2023-01-13T15:21:53.282Z,12.27
2023-01-13T15:24:29.518Z,12.19
2023-01-13T15:27:06.070Z,12.29
2023-01-13T15:29:48.613Z,12.17
2023-01-13T15:32:22.123Z,12.04
2023-01-13T15:34:57.302Z,11.97
2023-01-13T15:37:28.780Z,11.97
2023-01-13T15:40:16.573Z,11.91
2023-01-13T15:42:59.214Z,11.85
2023-01-13T15:45:42.449Z,11.83
2023-01-13T15:48:13.802Z,11.80
2023-01-13T15:54:13.153Z,11.64
2023-01-13T15:59:34.715Z,11.57
2023-01-13T16:02:38.083Z,11.55
2023-01-13T16:05:14.691Z,11.57
2023-01-13T16:07:49.867Z,11.53
2023-01-13T16:10:23.603Z,11.54
2023-01-13T16:12:56.048Z,11.61
2023-01-13T16:15:39.396Z,11.54
2023-01-13T16:18:09.588Z,11.51
2023-01-13T16:20:39.844Z,11.52
2023-01-13T16:23:19.041Z,11.63
2023-01-13T16:25:55.033Z,11.63
2023-01-13T16:28:28.246Z,11.55
2023-01-13T16:30:58.428Z,11.54
2023-01-13T16:33:31.445Z,11.41
2023-01-13T16:36:12.651Z,11.42
2023-01-13T16:38:45.436Z,11.43
2023-01-13T16:41:19.364Z,11.51
2023-01-13T16:44:00.252Z,11.56
2023-01-13T16:46:32.442Z,11.58
2023-01-13T16:49:06.429Z,11.57
2023-01-13T16:51:36.466Z,11.52
2023-01-13T16:54:18.593Z,11.42
2023-01-13T16:56:48.592Z,11.45
2023-01-13T16:59:21.846Z,11.41
2023-01-13T17:01:58.392Z,11.38
2023-01-13T17:04:41.024Z,11.24
2023-01-13T17:07:12.684Z,11.14
2023-01-13T17:09:45.447Z,11.13
2023-01-13T17:12:17.506Z,11.04
2023-01-13T17:14:47.488Z,11.04
2023-01-13T17:17:32.867Z,10.95
2023-01-13T17:20:03.016Z,10.88
2023-01-13T17:22:58.269Z,10.84
2023-01-13T17:25:43.196Z,10.78
2023-01-13T17:28:27.777Z,10.74
2023-01-13T17:38:27.588Z,10.73
2023-01-13T17:41:32.117Z,10.73
2023-01-13T17:44:38.258Z,10.67
2023-01-13T17:47:57.863Z,10.70
2023-01-13T17:50:44.131Z,10.66
2023-01-13T17:53:54.488Z,10.68
2023-01-13T17:58:11.393Z,10.65
2023-01-13T18:06:17.567Z,10.58
2023-01-13T18:08:58.479Z,10.56
2023-01-13T18:15:26.915Z,10.54
2023-01-13T18:18:04.736Z,10.50
2023-01-13T18:21:12.093Z,10.49
2023-01-13T18:27:59.948Z,10.43
2023-01-13T18:31:12.757Z,10.49
2023-01-13T18:33:46.914Z,10.48
2023-01-13T18:37:10.392Z,10.53
2023-01-13T18:40:16.194Z,10.58
2023-01-13T18:43:05.414Z,10.54
2023-01-13T18:52:03.841Z,10.48
2023-01-13T18:53:32.563Z,10.52
2023-01-13T18:56:09.857Z,10.64
2023-01-13T19:03:39.359Z,10.49
2023-01-13T19:06:54.033Z,10.52
2023-01-13T19:09:31.228Z,10.55
2023-01-13T19:12:11.752Z,10.62
2023-01-13T19:14:55.067Z,10.69
2023-01-13T19:17:31.037Z,10.62
2023-01-13T19:20:08.027Z,10.65
2023-01-13T19:23:20.249Z,10.61
2023-01-13T19:25:58.953Z,10.65
2023-01-13T19:28:32.455Z,10.61
2023-01-13T19:31:23.368Z,10.62
2023-01-13T19:34:16.810Z,10.54
2023-01-13T19:36:47.046Z,10.60
2023-01-13T19:39:56.109Z,10.60
2023-01-13T19:42:57.538Z,10.61
2023-01-13T19:45:36.389Z,10.62
2023-01-13T19:48:41.417Z,10.67
2023-01-13T19:51:46.551Z,10.71
2023-01-13T19:54:34.322Z,10.64
2023-01-13T19:57:27.657Z,10.62
2023-01-13T20:00:11.446Z,10.64
2023-01-13T20:03:01.220Z,10.64
2023-01-13T20:05:48.002Z,10.56
2023-01-13T20:08:37.053Z,10.68
2023-01-13T20:11:27.807Z,10.68
2023-01-13T20:14:01.138Z,10.74
2023-01-13T20:16:44.626Z,10.72
2023-01-13T20:19:18.109Z,10.76
2023-01-13T20:22:32.254Z,10.75
2023-01-13T20:25:17.390Z,10.74
2023-01-13T20:28:00.217Z,10.73
2023-01-13T20:30:30.576Z,10.70
2023-01-13T20:33:20.161Z,10.72
2023-01-13T20:36:02.200Z,10.75
2023-01-13T20:41:46.273Z,10.72
2023-01-13T20:44:32.359Z,10.72
2023-01-13T20:47:20.256Z,10.75
2023-01-13T20:53:17.191Z,10.63
2023-01-13T20:55:59.454Z,10.62
2023-01-13T20:58:29.431Z,10.73
2023-01-13T21:01:02.272Z,10.57
2023-01-13T21:03:35.153Z,10.55
2023-01-13T21:06:20.839Z,10.58
2023-01-13T21:09:05.345Z,10.64
2023-01-13T21:11:48.276Z,10.65
2023-01-13T21:14:32.774Z,10.63
2023-01-13T21:17:30.986Z,10.61
2023-01-13T21:20:15.595Z,10.67
2023-01-13T21:22:52.149Z,10.70
2023-01-13T21:25:22.566Z,10.63
2023-01-13T21:27:52.573Z,10.57
2023-01-13T21:30:31.577Z,10.59
2023-01-13T21:33:04.288Z,10.63
2023-01-13T21:35:39.958Z,10.64
2023-01-13T21:38:17.393Z,10.60
2023-01-13T21:40:47.462Z,10.57
2023-01-13T21:43:35.321Z,10.47
2023-01-13T21:46:28.007Z,10.38
2023-01-13T21:49:03.691Z,10.43
2023-01-13T21:51:41.716Z,10.35
2023-01-13T21:54:17.202Z,10.31
2023-01-13T21:56:47.267Z,10.34
2023-01-13T21:59:40.501Z,10.33
2023-01-13T22:02:25.674Z,10.27
2023-01-13T22:05:08.847Z,10.24
2023-01-13T22:08:11.305Z,10.29
2023-01-13T22:10:58.044Z,10.28
2023-01-13T22:13:43.251Z,10.31
2023-01-13T22:16:41.760Z,10.38
2023-01-13T22:19:30.700Z,10.26
2023-01-13T22:22:03.129Z,10.30
2023-01-13T22:24:36.609Z,10.19
2023-01-13T22:27:29.181Z,10.11
2023-01-13T22:30:09.418Z,10.07
2023-01-13T22:32:44.961Z,10.08
2023-01-13T22:35:17.038Z,10.09
2023-01-13T22:37:54.044Z,10.19
2023-01-13T22:40:24.916Z,10.17
2023-01-13T22:43:01.868Z,10.17
2023-01-13T22:45:40.939Z,10.17
2023-01-13T22:48:25.604Z,10.13
2023-01-13T22:51:13.948Z,10.10
2023-01-13T22:53:45.423Z,10.18
2023-01-13T22:56:21.723Z,10.22
2023-01-13T22:59:01.342Z,10.21
2023-01-13T23:01:42.125Z,10.17
2023-01-13T23:04:14.803Z,10.16
2023-01-13T23:06:45.015Z,10.27
2023-01-13T23:09:18.327Z,10.22
2023-01-13T23:11:50.200Z,10.25
2023-01-13T23:14:23.380Z,10.23
2023-01-13T23:16:53.643Z,10.17
2023-01-13T23:19:23.725Z,10.18
2023-01-13T23:21:54.098Z,10.16
2023-01-13T23:24:26.018Z,10.05
2023-01-13T23:26:56.321Z,9.98
2023-01-13T23:29:28.989Z,9.94
2023-01-13T23:32:16.033Z,9.83
2023-01-13T23:34:46.024Z,9.82
2023-01-13T23:37:16.065Z,9.82
2023-01-13T23:39:46.057Z,9.84
2023-01-13T23:42:16.090Z,9.84
2023-01-13T23:44:48.856Z,9.86
2023-01-13T23:47:18.923Z,9.89
2023-01-13T23:49:48.924Z,9.93
2023-01-13T23:52:18.985Z,9.92
2023-01-13T23:54:48.941Z,9.94
2023-01-13T23:57:18.992Z,9.93
2023-01-13T23:59:51.600Z,9.91
